sensor_id;sensor_type;location;lat;lon;timestamp;temperature;humidity
5459;DHT22;2752;49.992;8.422;2023-01-06T00:01:03;10.50;88.60
5459;DHT22;2752;49.992;8.422;2023-01-06T00:03:29;10.60;87.90
5459;DHT22;2752;49.992;8.422;2023-01-06T00:05:57;10.50;85.80
5459;DHT22;2752;49.992;8.422;2023-01-06T00:08:24;10.20;86.10
5459;DHT22;2752;49.992;8.422;2023-01-06T00:10:50;10.50;86.00
5459;DHT22;2752;49.992;8.422;2023-01-06T00:13:17;10.50;86.00
5459;DHT22;2752;49.992;8.422;2023-01-06T00:15:44;10.50;87.50
5459;DHT22;2752;49.992;8.422;2023-01-06T00:18:12;10.50;86.90
5459;DHT22;2752;49.992;8.422;2023-01-06T00:20:38;10.50;87.80
5459;DHT22;2752;49.992;8.422;2023-01-06T00:23:05;10.50;88.40
5459;DHT22;2752;49.992;8.422;2023-01-06T00:25:32;10.40;88.80
5459;DHT22;2752;49.992;8.422;2023-01-06T00:27:58;10.50;89.60
5459;DHT22;2752;49.992;8.422;2023-01-06T00:30:25;10.40;89.20
5459;DHT22;2752;49.992;8.422;2023-01-06T00:32:51;10.40;88.90
5459;DHT22;2752;49.992;8.422;2023-01-06T00:35:19;10.40;88.90
5459;DHT22;2752;49.992;8.422;2023-01-06T00:37:46;10.40;89.10
5459;DHT22;2752;49.992;8.422;2023-01-06T00:40:13;10.30;88.70
5459;DHT22;2752;49.992;8.422;2023-01-06T00:42:39;10.40;88.50
5459;DHT22;2752;49.992;8.422;2023-01-06T00:45:07;10.30;88.70
5459;DHT22;2752;49.992;8.422;2023-01-06T00:47:34;10.30;89.60
5459;DHT22;2752;49.992;8.422;2023-01-06T00:50:00;10.20;90.00
5459;DHT22;2752;49.992;8.422;2023-01-06T00:52:28;10.20;90.70
5459;DHT22;2752;49.992;8.422;2023-01-06T00:54:55;10.10;91.40
5459;DHT22;2752;49.992;8.422;2023-01-06T00:57:21;10.10;93.10
5459;DHT22;2752;49.992;8.422;2023-01-06T00:59:48;10.10;92.80
5459;DHT22;2752;49.992;8.422;2023-01-06T01:02:15;10.20;93.80
5459;DHT22;2752;49.992;8.422;2023-01-06T01:04:41;10.20;93.70
5459;DHT22;2752;49.992;8.422;2023-01-06T01:07:08;10.20;94.40
5459;DHT22;2752;49.992;8.422;2023-01-06T01:09:36;10.20;95.20
5459;DHT22;2752;49.992;8.422;2023-01-06T01:12:03;10.30;95.40
5459;DHT22;2752;49.992;8.422;2023-01-06T01:14:37;10.30;95.50
5459;DHT22;2752;49.992;8.422;2023-01-06T01:17:03;10.30;95.70
5459;DHT22;2752;49.992;8.422;2023-01-06T01:19:30;10.30;96.50
5459;DHT22;2752;49.992;8.422;2023-01-06T01:21:57;10.30;96.40
5459;DHT22;2752;49.992;8.422;2023-01-06T01:24:24;10.30;96.80
5459;DHT22;2752;49.992;8.422;2023-01-06T01:26:52;10.40;97.40
5459;DHT22;2752;49.992;8.422;2023-01-06T01:29:18;10.40;97.80
5459;DHT22;2752;49.992;8.422;2023-01-06T01:31:46;10.40;97.90
5459;DHT22;2752;49.992;8.422;2023-01-06T01:34:14;10.50;98.80
5459;DHT22;2752;49.992;8.422;2023-01-06T01:36:42;10.60;98.80
5459;DHT22;2752;49.992;8.422;2023-01-06T01:39:10;10.60;98.80
5459;DHT22;2752;49.992;8.422;2023-01-06T01:41:37;10.70;98.50
5459;DHT22;2752;49.992;8.422;2023-01-06T01:47:05;10.70;99.50
5459;DHT22;2752;49.992;8.422;2023-01-06T01:49:34;10.70;99.90
5459;DHT22;2752;49.992;8.422;2023-01-06T01:52:02;10.70;99.90
5459;DHT22;2752;49.992;8.422;2023-01-06T01:54:30;10.70;99.90
5459;DHT22;2752;49.992;8.422;2023-01-06T01:57:00;10.80;99.90
5459;DHT22;2752;49.992;8.422;2023-01-06T01:59:31;10.80;99.90
5459;DHT22;2752;49.992;8.422;2023-01-06T02:01:59;10.70;99.90
5459;DHT22;2752;49.992;8.422;2023-01-06T02:04:27;10.80;99.90
5459;DHT22;2752;49.992;8.422;2023-01-06T02:06:54;10.90;99.90
5459;DHT22;2752;49.992;8.422;2023-01-06T02:09:26;10.90;99.90
5459;DHT22;2752;49.992;8.422;2023-01-06T02:11:55;10.90;99.90
5459;DHT22;2752;49.992;8.422;2023-01-06T02:14:24;10.90;99.90
5459;DHT22;2752;49.992;8.422;2023-01-06T02:17:02;10.80;99.90
5459;DHT22;2752;49.992;8.422;2023-01-06T02:19:59;10.80;99.90
5459;DHT22;2752;49.992;8.422;2023-01-06T02:22:47;10.80;99.90
5459;DHT22;2752;49.992;8.422;2023-01-06T02:25:38;10.90;99.90
5459;DHT22;2752;49.992;8.422;2023-01-06T02:28:29;10.90;99.90
5459;DHT22;2752;49.992;8.422;2023-01-06T02:34:11;10.80;99.90
5459;DHT22;2752;49.992;8.422;2023-01-06T02:36:43;10.90;99.90
5459;DHT22;2752;49.992;8.422;2023-01-06T02:39:21;10.80;99.90
5459;DHT22;2752;49.992;8.422;2023-01-06T02:41:59;10.80;99.90
5459;DHT22;2752;49.992;8.422;2023-01-06T02:44:32;10.80;99.90
5459;DHT22;2752;49.992;8.422;2023-01-06T02:47:12;10.90;99.90
5459;DHT22;2752;49.992;8.422;2023-01-06T02:49:46;10.90;99.90
5459;DHT22;2752;49.992;8.422;2023-01-06T02:52:19;10.90;99.90
5459;DHT22;2752;49.992;8.422;2023-01-06T02:54:53;11.00;99.90
5459;DHT22;2752;49.992;8.422;2023-01-06T02:57:26;11.00;99.90
5459;DHT22;2752;49.992;8.422;2023-01-06T02:59:59;11.00;99.90
5459;DHT22;2752;49.992;8.422;2023-01-06T03:02:27;11.00;99.90
5459;DHT22;2752;49.992;8.422;2023-01-06T03:04:59;11.00;99.90
5459;DHT22;2752;49.992;8.422;2023-01-06T03:07:27;11.10;99.90
5459;DHT22;2752;49.992;8.422;2023-01-06T03:09:56;11.20;99.90
5459;DHT22;2752;49.992;8.422;2023-01-06T03:12:27;11.20;99.90
5459;DHT22;2752;49.992;8.422;2023-01-06T03:14:56;11.20;99.90
5459;DHT22;2752;49.992;8.422;2023-01-06T03:17:22;11.10;99.70
5459;DHT22;2752;49.992;8.422;2023-01-06T03:19:49;11.10;99.90
5459;DHT22;2752;49.992;8.422;2023-01-06T03:22:19;11.10;99.90
5459;DHT22;2752;49.992;8.422;2023-01-06T03:24:46;11.10;99.90
5459;DHT22;2752;49.992;8.422;2023-01-06T03:27:14;11.10;99.90
5459;DHT22;2752;49.992;8.422;2023-01-06T03:29:41;11.10;99.90
5459;DHT22;2752;49.992;8.422;2023-01-06T03:32:13;11.10;99.90
5459;DHT22;2752;49.992;8.422;2023-01-06T03:34:49;11.20;99.30
5459;DHT22;2752;49.992;8.422;2023-01-06T03:37:24;11.20;97.60
5459;DHT22;2752;49.992;8.422;2023-01-06T03:39:56;11.30;96.10
5459;DHT22;2752;49.992;8.422;2023-01-06T03:42:28;11.20;94.40
5459;DHT22;2752;49.992;8.422;2023-01-06T03:45:27;11.20;95.10
5459;DHT22;2752;49.992;8.422;2023-01-06T03:48:04;11.10;95.70
5459;DHT22;2752;49.992;8.422;2023-01-06T03:50:36;11.00;96.60
5459;DHT22;2752;49.992;8.422;2023-01-06T03:53:14;11.10;96.40
5459;DHT22;2752;49.992;8.422;2023-01-06T03:55:45;11.00;96.70
5459;DHT22;2752;49.992;8.422;2023-01-06T03:58:13;10.90;96.50
5459;DHT22;2752;49.992;8.422;2023-01-06T04:00:41;10.90;97.50
5459;DHT22;2752;49.992;8.422;2023-01-06T04:03:10;10.90;98.20
5459;DHT22;2752;49.992;8.422;2023-01-06T04:05:38;10.80;98.20
5459;DHT22;2752;49.992;8.422;2023-01-06T04:08:06;10.90;98.10
5459;DHT22;2752;49.992;8.422;2023-01-06T04:10:32;10.90;97.90
5459;DHT22;2752;49.992;8.422;2023-01-06T04:12:59;11.30;98.30
5459;DHT22;2752;49.992;8.422;2023-01-06T04:15:26;10.90;97.30
5459;DHT22;2752;49.992;8.422;2023-01-06T04:17:54;10.80;96.30
5459;DHT22;2752;49.992;8.422;2023-01-06T04:20:24;10.90;96.30
5459;DHT22;2752;49.992;8.422;2023-01-06T04:22:52;10.90;95.20
5459;DHT22;2752;49.992;8.422;2023-01-06T04:25:20;10.90;93.90
5459;DHT22;2752;49.992;8.422;2023-01-06T04:27:47;11.00;90.00
5459;DHT22;2752;49.992;8.422;2023-01-06T04:30:14;10.90;87.70
5459;DHT22;2752;49.992;8.422;2023-01-06T04:32:40;11.00;85.90
5459;DHT22;2752;49.992;8.422;2023-01-06T04:35:08;11.00;84.60
5459;DHT22;2752;49.992;8.422;2023-01-06T04:37:35;11.00;83.80
5459;DHT22;2752;49.992;8.422;2023-01-06T04:40:02;11.00;83.40
5459;DHT22;2752;49.992;8.422;2023-01-06T04:42:31;11.00;83.10
5459;DHT22;2752;49.992;8.422;2023-01-06T04:45:17;11.00;82.00
5459;DHT22;2752;49.992;8.422;2023-01-06T04:47:44;11.10;80.30
5459;DHT22;2752;49.992;8.422;2023-01-06T04:50:11;11.00;77.40
5459;DHT22;2752;49.992;8.422;2023-01-06T04:52:38;11.00;76.80
5459;DHT22;2752;49.992;8.422;2023-01-06T04:55:05;11.00;76.10
5459;DHT22;2752;49.992;8.422;2023-01-06T04:57:33;11.10;74.40
5459;DHT22;2752;49.992;8.422;2023-01-06T05:00:00;11.10;74.00
5459;DHT22;2752;49.992;8.422;2023-01-06T05:02:26;11.10;72.80
5459;DHT22;2752;49.992;8.422;2023-01-06T05:04:53;11.20;70.20
5459;DHT22;2752;49.992;8.422;2023-01-06T05:07:19;11.20;68.40
5459;DHT22;2752;49.992;8.422;2023-01-06T05:09:46;11.20;68.60
5459;DHT22;2752;49.992;8.422;2023-01-06T05:12:13;11.10;70.80
5459;DHT22;2752;49.992;8.422;2023-01-06T05:14:41;11.10;72.60
5459;DHT22;2752;49.992;8.422;2023-01-06T05:17:07;11.10;71.40
5459;DHT22;2752;49.992;8.422;2023-01-06T05:19:34;11.10;70.40
5459;DHT22;2752;49.992;8.422;2023-01-06T05:22:01;11.10;69.40
5459;DHT22;2752;49.992;8.422;2023-01-06T05:24:27;11.10;69.40
5459;DHT22;2752;49.992;8.422;2023-01-06T05:26:54;11.10;67.70
5459;DHT22;2752;49.992;8.422;2023-01-06T05:29:20;11.10;66.50
5459;DHT22;2752;49.992;8.422;2023-01-06T05:31:48;11.10;66.90
5459;DHT22;2752;49.992;8.422;2023-01-06T05:34:15;11.00;67.30
5459;DHT22;2752;49.992;8.422;2023-01-06T05:36:42;11.10;67.70
5459;DHT22;2752;49.992;8.422;2023-01-06T05:39:08;11.10;66.00
5459;DHT22;2752;49.992;8.422;2023-01-06T05:41:35;11.10;64.00
5459;DHT22;2752;49.992;8.422;2023-01-06T05:44:01;11.10;64.30
5459;DHT22;2752;49.992;8.422;2023-01-06T05:46:28;11.00;65.00
5459;DHT22;2752;49.992;8.422;2023-01-06T05:48:57;11.10;65.10
5459;DHT22;2752;49.992;8.422;2023-01-06T05:51:24;11.10;61.70
5459;DHT22;2752;49.992;8.422;2023-01-06T05:53:51;11.10;60.40
5459;DHT22;2752;49.992;8.422;2023-01-06T05:56:19;11.10;58.20
5459;DHT22;2752;49.992;8.422;2023-01-06T05:58:49;11.20;55.60
5459;DHT22;2752;49.992;8.422;2023-01-06T06:01:17;11.20;54.40
5459;DHT22;2752;49.992;8.422;2023-01-06T06:03:44;11.10;56.20
5459;DHT22;2752;49.992;8.422;2023-01-06T06:06:13;11.10;58.80
5459;DHT22;2752;49.992;8.422;2023-01-06T06:08:39;11.00;60.00
5459;DHT22;2752;49.992;8.422;2023-01-06T06:11:08;11.10;62.00
5459;DHT22;2752;49.992;8.422;2023-01-06T06:13:35;11.10;62.50
5459;DHT22;2752;49.992;8.422;2023-01-06T06:16:03;11.10;64.20
5459;DHT22;2752;49.992;8.422;2023-01-06T06:18:30;11.00;65.50
5459;DHT22;2752;49.992;8.422;2023-01-06T06:20:59;11.00;66.80
5459;DHT22;2752;49.992;8.422;2023-01-06T06:23:27;10.90;67.60
5459;DHT22;2752;49.992;8.422;2023-01-06T06:25:54;10.90;68.50
5459;DHT22;2752;49.992;8.422;2023-01-06T06:28:20;10.90;68.60
5459;DHT22;2752;49.992;8.422;2023-01-06T06:30:47;10.90;69.20
5459;DHT22;2752;49.992;8.422;2023-01-06T06:33:14;10.90;67.30
5459;DHT22;2752;49.992;8.422;2023-01-06T06:35:40;10.90;67.20
5459;DHT22;2752;49.992;8.422;2023-01-06T06:38:07;10.80;67.60
5459;DHT22;2752;49.992;8.422;2023-01-06T06:40:35;10.80;66.60
5459;DHT22;2752;49.992;8.422;2023-01-06T06:43:02;10.80;67.90
5459;DHT22;2752;49.992;8.422;2023-01-06T06:45:28;10.60;67.70
5459;DHT22;2752;49.992;8.422;2023-01-06T06:47:55;10.70;69.60
5459;DHT22;2752;49.992;8.422;2023-01-06T06:50:22;10.60;69.00
5459;DHT22;2752;49.992;8.422;2023-01-06T06:52:48;10.70;71.80
5459;DHT22;2752;49.992;8.422;2023-01-06T06:55:15;10.70;69.60
5459;DHT22;2752;49.992;8.422;2023-01-06T06:57:43;10.70;68.60
5459;DHT22;2752;49.992;8.422;2023-01-06T07:00:10;10.70;68.30
5459;DHT22;2752;49.992;8.422;2023-01-06T07:02:37;10.70;68.70
5459;DHT22;2752;49.992;8.422;2023-01-06T07:05:04;10.70;68.70
5459;DHT22;2752;49.992;8.422;2023-01-06T07:07:31;10.70;68.50
5459;DHT22;2752;49.992;8.422;2023-01-06T07:09:57;10.40;69.60
5459;DHT22;2752;49.992;8.422;2023-01-06T07:12:24;10.60;69.40
5459;DHT22;2752;49.992;8.422;2023-01-06T07:14:52;10.60;70.70
5459;DHT22;2752;49.992;8.422;2023-01-06T07:17:19;10.60;71.00
5459;DHT22;2752;49.992;8.422;2023-01-06T07:19:50;10.60;70.60
5459;DHT22;2752;49.992;8.422;2023-01-06T07:22:17;10.60;70.80
5459;DHT22;2752;49.992;8.422;2023-01-06T07:24:44;10.60;70.90
5459;DHT22;2752;49.992;8.422;2023-01-06T07:27:10;10.70;71.20
5459;DHT22;2752;49.992;8.422;2023-01-06T07:29:37;10.60;67.30
5459;DHT22;2752;49.992;8.422;2023-01-06T07:32:05;10.60;68.20
5459;DHT22;2752;49.992;8.422;2023-01-06T07:34:32;10.60;67.90
5459;DHT22;2752;49.992;8.422;2023-01-06T07:36:58;10.60;67.30
5459;DHT22;2752;49.992;8.422;2023-01-06T07:39:25;10.60;67.10
5459;DHT22;2752;49.992;8.422;2023-01-06T07:41:51;10.60;66.00
5459;DHT22;2752;49.992;8.422;2023-01-06T07:44:18;10.70;63.60
5459;DHT22;2752;49.992;8.422;2023-01-06T07:46:45;10.70;62.90
5459;DHT22;2752;49.992;8.422;2023-01-06T07:49:13;10.60;62.20
5459;DHT22;2752;49.992;8.422;2023-01-06T07:51:39;10.80;59.70
5459;DHT22;2752;49.992;8.422;2023-01-06T07:54:06;10.70;59.40
5459;DHT22;2752;49.992;8.422;2023-01-06T07:56:33;10.70;57.50
5459;DHT22;2752;49.992;8.422;2023-01-06T07:58:59;10.80;57.30
5459;DHT22;2752;49.992;8.422;2023-01-06T08:01:26;10.80;57.20
5459;DHT22;2752;49.992;8.422;2023-01-06T08:03:52;10.80;58.50
5459;DHT22;2752;49.992;8.422;2023-01-06T08:06:20;10.70;57.10
5459;DHT22;2752;49.992;8.422;2023-01-06T08:08:47;10.70;58.40
5459;DHT22;2752;49.992;8.422;2023-01-06T08:11:14;10.70;57.00
5459;DHT22;2752;49.992;8.422;2023-01-06T08:13:40;10.70;56.50
5459;DHT22;2752;49.992;8.422;2023-01-06T08:16:08;10.70;56.00
5459;DHT22;2752;49.992;8.422;2023-01-06T08:18:35;10.80;55.60
5459;DHT22;2752;49.992;8.422;2023-01-06T08:21:04;10.80;54.50
5459;DHT22;2752;49.992;8.422;2023-01-06T08:23:33;10.80;53.80
5459;DHT22;2752;49.992;8.422;2023-01-06T08:26:01;10.90;53.50
5459;DHT22;2752;49.992;8.422;2023-01-06T08:28:28;11.40;50.20
5459;DHT22;2752;49.992;8.422;2023-01-06T08:30:54;11.00;48.00
5459;DHT22;2752;49.992;8.422;2023-01-06T08:33:21;11.00;46.90
5459;DHT22;2752;49.992;8.422;2023-01-06T08:35:50;11.10;46.30
5459;DHT22;2752;49.992;8.422;2023-01-06T08:38:17;11.10;42.50
5459;DHT22;2752;49.992;8.422;2023-01-06T08:40:45;11.10;41.50
5459;DHT22;2752;49.992;8.422;2023-01-06T08:43:11;11.10;42.00
5459;DHT22;2752;49.992;8.422;2023-01-06T08:45:38;11.10;42.10
5459;DHT22;2752;49.992;8.422;2023-01-06T08:48:05;11.00;43.00
5459;DHT22;2752;49.992;8.422;2023-01-06T08:50:32;11.00;41.60
5459;DHT22;2752;49.992;8.422;2023-01-06T08:52:58;11.00;41.80
5459;DHT22;2752;49.992;8.422;2023-01-06T08:55:25;11.20;40.10
5459;DHT22;2752;49.992;8.422;2023-01-06T08:57:53;11.20;38.70
5459;DHT22;2752;49.992;8.422;2023-01-06T09:00:19;11.10;41.30
5459;DHT22;2752;49.992;8.422;2023-01-06T09:02:46;11.20;38.20
5459;DHT22;2752;49.992;8.422;2023-01-06T09:05:13;11.20;37.90
5459;DHT22;2752;49.992;8.422;2023-01-06T09:07:40;11.20;35.50
5459;DHT22;2752;49.992;8.422;2023-01-06T09:10:07;11.20;35.70
5459;DHT22;2752;49.992;8.422;2023-01-06T09:12:34;11.30;34.60
5459;DHT22;2752;49.992;8.422;2023-01-06T09:15:03;11.30;34.50
5459;DHT22;2752;49.992;8.422;2023-01-06T09:17:29;11.30;31.80
5459;DHT22;2752;49.992;8.422;2023-01-06T09:19:56;11.40;32.40
5459;DHT22;2752;49.992;8.422;2023-01-06T09:22:23;11.40;31.80
5459;DHT22;2752;49.992;8.422;2023-01-06T09:24:49;11.40;30.40
5459;DHT22;2752;49.992;8.422;2023-01-06T09:27:16;11.40;30.40
5459;DHT22;2752;49.992;8.422;2023-01-06T09:29:43;11.30;29.70
5459;DHT22;2752;49.992;8.422;2023-01-06T09:32:10;11.30;30.00
5459;DHT22;2752;49.992;8.422;2023-01-06T09:34:38;11.40;28.10
5459;DHT22;2752;49.992;8.422;2023-01-06T09:37:05;11.40;28.90
5459;DHT22;2752;49.992;8.422;2023-01-06T09:39:31;11.50;27.90
5459;DHT22;2752;49.992;8.422;2023-01-06T09:42:28;11.50;26.30
5459;DHT22;2752;49.992;8.422;2023-01-06T09:45:01;11.60;23.00
5459;DHT22;2752;49.992;8.422;2023-01-06T09:47:34;11.60;21.80
5459;DHT22;2752;49.992;8.422;2023-01-06T09:50:06;11.60;20.60
5459;DHT22;2752;49.992;8.422;2023-01-06T09:52:36;11.60;19.30
5459;DHT22;2752;49.992;8.422;2023-01-06T09:55:13;11.70;17.80
5459;DHT22;2752;49.992;8.422;2023-01-06T09:57:43;11.70;15.10
5459;DHT22;2752;49.992;8.422;2023-01-06T10:00:21;11.70;12.90
5459;DHT22;2752;49.992;8.422;2023-01-06T10:02:51;11.70;8.90
5459;DHT22;2752;49.992;8.422;2023-01-06T10:05:19;11.80;7.80
5459;DHT22;2752;49.992;8.422;2023-01-06T10:07:53;11.80;6.70
5459;DHT22;2752;49.992;8.422;2023-01-06T10:10:28;11.90;6.90
5459;DHT22;2752;49.992;8.422;2023-01-06T10:13:04;11.80;4.50
5459;DHT22;2752;49.992;8.422;2023-01-06T10:15:40;11.80;2.60
5459;DHT22;2752;49.992;8.422;2023-01-06T10:18:25;11.70;3.60
5459;DHT22;2752;49.992;8.422;2023-01-06T10:21:05;11.80;1.20
5459;DHT22;2752;49.992;8.422;2023-01-06T10:23:54;11.80;1.00
5459;DHT22;2752;49.992;8.422;2023-01-06T10:26:28;11.80;1.00
5459;DHT22;2752;49.992;8.422;2023-01-06T10:29:00;11.80;1.00
5459;DHT22;2752;49.992;8.422;2023-01-06T10:31:31;11.80;1.00
5459;DHT22;2752;49.992;8.422;2023-01-06T10:34:01;11.80;1.00
5459;DHT22;2752;49.992;8.422;2023-01-06T10:36:30;11.90;1.00
5459;DHT22;2752;49.992;8.422;2023-01-06T10:38:58;12.00;1.00
5459;DHT22;2752;49.992;8.422;2023-01-06T10:41:33;12.00;1.00
5459;DHT22;2752;49.992;8.422;2023-01-06T10:44:03;12.10;1.00
5459;DHT22;2752;49.992;8.422;2023-01-06T10:46:33;12.20;1.00
5459;DHT22;2752;49.992;8.422;2023-01-06T10:49:02;12.20;1.00
5459;DHT22;2752;49.992;8.422;2023-01-06T10:51:34;12.20;1.00
5459;DHT22;2752;49.992;8.422;2023-01-06T10:54:04;12.40;1.00
5459;DHT22;2752;49.992;8.422;2023-01-06T10:56:34;12.50;1.00
5459;DHT22;2752;49.992;8.422;2023-01-06T10:59:06;12.60;1.00
5459;DHT22;2752;49.992;8.422;2023-01-06T11:01:33;12.40;1.00
5459;DHT22;2752;49.992;8.422;2023-01-06T11:04:07;12.40;1.00
5459;DHT22;2752;49.992;8.422;2023-01-06T11:06:38;12.40;1.00
5459;DHT22;2752;49.992;8.422;2023-01-06T11:09:20;12.40;1.00
5459;DHT22;2752;49.992;8.422;2023-01-06T11:11:48;12.50;1.00
5459;DHT22;2752;49.992;8.422;2023-01-06T11:14:17;12.50;1.00
5459;DHT22;2752;49.992;8.422;2023-01-06T11:16:52;12.60;1.00
5459;DHT22;2752;49.992;8.422;2023-01-06T11:19:23;12.60;1.00
5459;DHT22;2752;49.992;8.422;2023-01-06T11:21:56;12.80;1.00
5459;DHT22;2752;49.992;8.422;2023-01-06T11:24:24;12.90;1.00
5459;DHT22;2752;49.992;8.422;2023-01-06T11:26:52;13.00;1.00
5459;DHT22;2752;49.992;8.422;2023-01-06T11:29:25;13.10;1.00
5459;DHT22;2752;49.992;8.422;2023-01-06T11:31:52;13.20;1.00
5459;DHT22;2752;49.992;8.422;2023-01-06T11:34:23;13.10;1.00
5459;DHT22;2752;49.992;8.422;2023-01-06T11:36:50;13.10;1.00
5459;DHT22;2752;49.992;8.422;2023-01-06T11:39:22;13.10;1.00
5459;DHT22;2752;49.992;8.422;2023-01-06T11:41:52;13.00;1.00
5459;DHT22;2752;49.992;8.422;2023-01-06T11:44:24;12.90;1.00
5459;DHT22;2752;49.992;8.422;2023-01-06T11:46:56;13.00;1.00
5459;DHT22;2752;49.992;8.422;2023-01-06T11:49:29;12.90;1.00
5459;DHT22;2752;49.992;8.422;2023-01-06T11:51:59;12.90;1.00
5459;DHT22;2752;49.992;8.422;2023-01-06T11:54:33;12.90;1.00
5459;DHT22;2752;49.992;8.422;2023-01-06T11:57:19;12.90;1.00
5459;DHT22;2752;49.992;8.422;2023-01-06T12:02:49;12.50;1.00
5459;DHT22;2752;49.992;8.422;2023-01-06T12:05:25;12.60;1.00
5459;DHT22;2752;49.992;8.422;2023-01-06T12:07:55;12.60;1.00
5459;DHT22;2752;49.992;8.422;2023-01-06T12:10:27;12.70;1.00
5459;DHT22;2752;49.992;8.422;2023-01-06T12:12:55;12.80;1.00
5459;DHT22;2752;49.992;8.422;2023-01-06T12:15:23;12.80;1.00
5459;DHT22;2752;49.992;8.422;2023-01-06T12:17:55;12.90;1.00
5459;DHT22;2752;49.992;8.422;2023-01-06T12:20:27;12.80;1.00
5459;DHT22;2752;49.992;8.422;2023-01-06T12:22:58;12.80;1.00
5459;DHT22;2752;49.992;8.422;2023-01-06T12:25:30;12.90;1.00
5459;DHT22;2752;49.992;8.422;2023-01-06T12:27:59;13.00;1.00
5459;DHT22;2752;49.992;8.422;2023-01-06T12:30:32;13.20;1.00
5459;DHT22;2752;49.992;8.422;2023-01-06T12:33:02;13.10;1.00
5459;DHT22;2752;49.992;8.422;2023-01-06T12:35:33;13.00;1.00
5459;DHT22;2752;49.992;8.422;2023-01-06T12:38:07;13.00;1.00
5459;DHT22;2752;49.992;8.422;2023-01-06T12:40:41;13.00;1.00
5459;DHT22;2752;49.992;8.422;2023-01-06T12:43:14;13.00;1.00
5459;DHT22;2752;49.992;8.422;2023-01-06T12:45:49;13.10;1.00
5459;DHT22;2752;49.992;8.422;2023-01-06T12:48:21;13.00;1.00
5459;DHT22;2752;49.992;8.422;2023-01-06T12:50:56;13.00;1.00
5459;DHT22;2752;49.992;8.422;2023-01-06T12:53:27;13.00;1.00
5459;DHT22;2752;49.992;8.422;2023-01-06T12:56:04;13.10;1.00
5459;DHT22;2752;49.992;8.422;2023-01-06T12:58:43;13.00;1.00
5459;DHT22;2752;49.992;8.422;2023-01-06T13:01:17;13.00;1.00
5459;DHT22;2752;49.992;8.422;2023-01-06T13:04:11;12.90;1.00
5459;DHT22;2752;49.992;8.422;2023-01-06T13:06:55;12.90;1.00
5459;DHT22;2752;49.992;8.422;2023-01-06T13:09:42;12.90;1.00
5459;DHT22;2752;49.992;8.422;2023-01-06T13:12:43;12.90;1.00
5459;DHT22;2752;49.992;8.422;2023-01-06T13:15:18;12.90;1.00
5459;DHT22;2752;49.992;8.422;2023-01-06T13:17:52;12.90;1.00
5459;DHT22;2752;49.992;8.422;2023-01-06T13:20:28;12.90;1.00
5459;DHT22;2752;49.992;8.422;2023-01-06T13:23:09;12.80;1.00
5459;DHT22;2752;49.992;8.422;2023-01-06T13:26:11;12.80;1.00
5459;DHT22;2752;49.992;8.422;2023-01-06T13:28:46;12.90;1.00
5459;DHT22;2752;49.992;8.422;2023-01-06T13:31:34;12.80;1.00
5459;DHT22;2752;49.992;8.422;2023-01-06T13:37:23;12.80;1.00
5459;DHT22;2752;49.992;8.422;2023-01-06T13:39:56;12.80;1.00
5459;DHT22;2752;49.992;8.422;2023-01-06T13:42:31;12.80;1.00
5459;DHT22;2752;49.992;8.422;2023-01-06T13:45:00;12.80;1.00
5459;DHT22;2752;49.992;8.422;2023-01-06T13:47:27;12.90;1.00
5459;DHT22;2752;49.992;8.422;2023-01-06T13:49:57;12.90;1.00
5459;DHT22;2752;49.992;8.422;2023-01-06T13:52:26;13.00;1.00
5459;DHT22;2752;49.992;8.422;2023-01-06T13:55:25;13.00;1.00
5459;DHT22;2752;49.992;8.422;2023-01-06T13:57:53;13.00;1.00
5459;DHT22;2752;49.992;8.422;2023-01-06T14:00:24;12.90;1.00
5459;DHT22;2752;49.992;8.422;2023-01-06T14:03:20;13.00;1.00
5459;DHT22;2752;49.992;8.422;2023-01-06T14:05:52;12.80;1.00
5459;DHT22;2752;49.992;8.422;2023-01-06T14:08:20;12.80;1.00
5459;DHT22;2752;49.992;8.422;2023-01-06T14:10:57;12.90;1.00
5459;DHT22;2752;49.992;8.422;2023-01-06T14:13:27;12.90;1.00
5459;DHT22;2752;49.992;8.422;2023-01-06T14:15:56;12.80;1.00
5459;DHT22;2752;49.992;8.422;2023-01-06T14:18:36;12.90;1.00
5459;DHT22;2752;49.992;8.422;2023-01-06T14:21:05;12.90;1.00
5459;DHT22;2752;49.992;8.422;2023-01-06T14:23:33;12.90;1.00
5459;DHT22;2752;49.992;8.422;2023-01-06T14:26:02;12.90;1.00
5459;DHT22;2752;49.992;8.422;2023-01-06T14:28:31;13.00;1.00
5459;DHT22;2752;49.992;8.422;2023-01-06T14:34:12;13.00;1.00
5459;DHT22;2752;49.992;8.422;2023-01-06T14:36:41;12.90;1.00
5459;DHT22;2752;49.992;8.422;2023-01-06T14:39:15;12.90;1.00
5459;DHT22;2752;49.992;8.422;2023-01-06T14:41:49;12.80;1.00
5459;DHT22;2752;49.992;8.422;2023-01-06T14:44:23;12.80;1.00
5459;DHT22;2752;49.992;8.422;2023-01-06T14:46:54;12.70;1.00
5459;DHT22;2752;49.992;8.422;2023-01-06T14:49:24;12.70;1.00
5459;DHT22;2752;49.992;8.422;2023-01-06T14:51:53;12.70;1.00
5459;DHT22;2752;49.992;8.422;2023-01-06T14:54:24;12.60;1.00
5459;DHT22;2752;49.992;8.422;2023-01-06T14:56:55;12.60;1.00
5459;DHT22;2752;49.992;8.422;2023-01-06T14:59:22;12.60;1.00
5459;DHT22;2752;49.992;8.422;2023-01-06T15:01:57;12.60;1.00
5459;DHT22;2752;49.992;8.422;2023-01-06T15:04:28;12.50;1.00
5459;DHT22;2752;49.992;8.422;2023-01-06T15:07:15;12.50;1.00
5459;DHT22;2752;49.992;8.422;2023-01-06T15:09:43;12.40;1.00
5459;DHT22;2752;49.992;8.422;2023-01-06T15:12:25;12.40;1.00
5459;DHT22;2752;49.992;8.422;2023-01-06T15:14:52;12.30;1.00
5459;DHT22;2752;49.992;8.422;2023-01-06T15:17:19;12.30;1.00
5459;DHT22;2752;49.992;8.422;2023-01-06T15:19:48;12.20;1.00
5459;DHT22;2752;49.992;8.422;2023-01-06T15:22:19;12.20;1.00
5459;DHT22;2752;49.992;8.422;2023-01-06T15:24:47;12.10;1.00
5459;DHT22;2752;49.992;8.422;2023-01-06T15:27:15;12.10;1.00
5459;DHT22;2752;49.992;8.422;2023-01-06T15:29:50;12.00;1.00
5459;DHT22;2752;49.992;8.422;2023-01-06T15:32:18;11.90;1.00
5459;DHT22;2752;49.992;8.422;2023-01-06T15:34:45;11.80;1.00
5459;DHT22;2752;49.992;8.422;2023-01-06T15:37:17;11.80;1.00
5459;DHT22;2752;49.992;8.422;2023-01-06T15:39:44;11.60;1.00
5459;DHT22;2752;49.992;8.422;2023-01-06T15:42:12;11.60;1.00
5459;DHT22;2752;49.992;8.422;2023-01-06T15:44:40;11.50;1.00
5459;DHT22;2752;49.992;8.422;2023-01-06T15:47:28;11.40;1.00
5459;DHT22;2752;49.992;8.422;2023-01-06T15:49:58;11.40;1.10
5459;DHT22;2752;49.992;8.422;2023-01-06T15:52:28;11.30;1.30
5459;DHT22;2752;49.992;8.422;2023-01-06T15:54:59;11.30;3.10
5459;DHT22;2752;49.992;8.422;2023-01-06T15:57:30;11.20;5.10
5459;DHT22;2752;49.992;8.422;2023-01-06T16:00:00;11.20;6.80
5459;DHT22;2752;49.992;8.422;2023-01-06T16:02:30;11.20;6.00
5459;DHT22;2752;49.992;8.422;2023-01-06T16:04:57;11.20;6.90
5459;DHT22;2752;49.992;8.422;2023-01-06T16:07:34;11.20;7.40
5459;DHT22;2752;49.992;8.422;2023-01-06T16:12:45;11.30;7.00
5459;DHT22;2752;49.992;8.422;2023-01-06T16:15:34;11.30;6.00
5459;DHT22;2752;49.992;8.422;2023-01-06T16:18:02;11.30;7.80
5459;DHT22;2752;49.992;8.422;2023-01-06T16:20:29;11.20;7.40
5459;DHT22;2752;49.992;8.422;2023-01-06T16:22:56;11.30;7.50
5459;DHT22;2752;49.992;8.422;2023-01-06T16:25:24;11.30;8.00
5459;DHT22;2752;49.992;8.422;2023-01-06T16:27:53;11.20;8.80
5459;DHT22;2752;49.992;8.422;2023-01-06T16:30:23;11.20;9.90
5459;DHT22;2752;49.992;8.422;2023-01-06T16:32:50;11.20;10.10
5459;DHT22;2752;49.992;8.422;2023-01-06T16:35:21;11.10;10.50
5459;DHT22;2752;49.992;8.422;2023-01-06T16:37:48;11.10;13.10
5459;DHT22;2752;49.992;8.422;2023-01-06T16:40:17;11.10;13.20
5459;DHT22;2752;49.992;8.422;2023-01-06T16:42:45;11.20;11.50
5459;DHT22;2752;49.992;8.422;2023-01-06T16:45:18;11.10;11.60